Historical Weather Data

Date ET Rain Temperature Humidity Wind Solar
High Low Ave Ave Ave Ave
01/01/2012 0.05&quot 0.00&quot 45.8&deg 28.5&deg 36.1&deg 64.9% 14.5 MPH 84.0w/m2
01/02/2012 0.03&quot 0.00&quot 28.5&deg 13.1&deg 21.5&deg 78.0% 15.1 MPH 38.4w/m2
01/03/2012 0.03&quot 0.00&quot 31.5&deg 8.9&deg 21.0&deg 52.0% 4.9 MPH 99.0w/m2
01/04/2012 0.05&quot 0.00&quot 46.1&deg 25.4&deg 34.5&deg 83.9% 5.6 MPH 100.2w/m2
01/05/2012 0.05&quot 0.00&quot 54.7&deg 27.4&deg 40.4&deg 58.4% 5.1 MPH 96.2w/m2
01/06/2012 0.06&quot 0.00&quot 58.1&deg 34.4&deg 44.5&deg 65.6% 5.7 MPH 99.5w/m2
01/07/2012 0.04&quot 0.00&quot 45.0&deg 26.5&deg 35.7&deg 92.9% 4.9 MPH 102.7w/m2
01/08/2012 0.02&quot 0.00&quot 40.9&deg 24.5&deg 32.7&deg 94.3% 2.3 MPH 63.3w/m2
01/09/2012 0.05&quot 0.00&quot 47.6&deg 22.1&deg 33.9&deg 79.8% 4.5 MPH 102.5w/m2
01/10/2012 0.05&quot 0.00&quot 56.2&deg 28.1&deg 39.5&deg 75.5% 3.0 MPH 106.2w/m2
01/11/2012 0.05&quot 0.00&quot 54.7&deg 27.5&deg 38.8&deg 90.1% 4.6 MPH 98.0w/m2
01/12/2012 0.01&quot 0.00&quot 34.5&deg 12.7&deg 19.0&deg 83.9% 8.1 MPH 52.6w/m2
01/13/2012 0.02&quot 0.00&quot 19.6&deg 4.1&deg 15.1&deg 82.7% 4.8 MPH 66.3w/m2
01/14/2012 0.02&quot 0.00&quot 24.2&deg 4.0&deg 13.6&deg 82.5% 2.3 MPH 85.9w/m2
01/15/2012 0.03&quot 0.00&quot 35.0&deg 17.1&deg 27.5&deg 74.1% 9.4 MPH 108.9w/m2
01/16/2012 0.03&quot 0.00&quot 53.8&deg 32.7&deg 44.0&deg 91.1% 6.6 MPH 47.8w/m2
01/17/2012 0.02&quot 0.23&quot 53.8&deg 14.8&deg 31.8&deg 73.7% 12.3 MPH 11.9w/m2
01/18/2012 0.03&quot 0.00&quot 28.0&deg 9.6&deg 19.6&deg 72.3% 5.7 MPH 100.9w/m2
01/19/2012 0.02&quot 0.00&quot 28.1&deg 2.7&deg 15.8&deg 70.0% 6.4 MPH 58.1w/m2
01/20/2012 0.02&quot 0.00&quot 20.1&deg 2.8&deg 13.2&deg 87.7% 10.6 MPH 27.6w/m2
01/21/2012 0.03&quot 0.00&quot 27.4&deg 15.4&deg 19.6&deg 92.6% 7.7 MPH 93.8w/m2
01/22/2012 0.01&quot 0.00&quot 45.9&deg 20.5&deg 31.6&deg 100.0% 11.4 MPH 22.7w/m2
01/23/2012 0.03&quot 0.00&quot 46.9&deg 30.7&deg 36.3&deg 71.2% 10.7 MPH 21.2w/m2
01/24/2012 0.04&quot 0.00&quot 37.7&deg 24.9&deg 30.8&deg 95.3% 3.5 MPH 96.5w/m2
01/25/2012 0.02&quot 0.00&quot 33.0&deg 25.0&deg 29.8&deg 96.5% 4.6 MPH 31.1w/m2
Totals: 0.80&quot 0.23&quot 58.1&deg 2.7&deg 29.0&deg 80.4% 7.0 MPH 72.6w/m2